Lunenburg, VT

3:46 PM EDT on July 30, 2016 (GMT -0400)
APRSWXNET | | Change Station

Elev 1210 ft 44.49 °N, 71.69 °W | Updated 46 minutes ago

Clear
Clear
75 °F
Feels Like 78 °F
N
2
Wind Variable Wind from ENE
Gusts 3.0 mph

Today
High -- | Low -- °F
--% Chance of Precip.
Yesterday
High -- | Low -- °F
Precip. -- in
Pressure 30.07 in
Visibility 10.0 miles
Clouds Clear
Heat Index 78 °F
Dew Point 55 °F
Humidity 50%
Rainfall in
Snow Depth Not available.
5:31 AM 8:13 PM
Waning Crescent, 11% visible
METAR KHIE 301852Z AUTO 00000KT 10SM CLR 25/11 A3007 RMK AO2 SLP181 T02500111
Pressure 30.07 in
Visibility 10.0 miles
Clouds Clear
Heat Index 78 °F
Dew Point 55 °F
Humidity 50%
Rainfall in
Snow Depth Not available.
5:31 AM 8:13 PM
Waning Crescent, 11% visible
METAR KHIE 301852Z AUTO 00000KT 10SM CLR 25/11 A3007 RMK AO2 SLP181 T02500111

10-Day Weather Forecast

Almanac

Astronomy

Jul. 30, 2016 Rise Set
Actual Time
Civil Twilight
Nautical Twilight
Astronomical Twilight
Moon
Length of Visible Light
Length of Day
Tomorrow will be .
, % of the Moon is Illuminated

Today's Extremes

State Highs State Lows

Community

WunderPhotos

Upload Photos

1,928,628 photos uploaded!

WunderBlog® & News

Nearby

Air Quality

  Air Quality AQ Index Pollutant
Not available.

Snow Depth

Station Depth Elevation

Earthquake Activity

City Distance Mag. Time & Date
Minimum magnitude displayed is 2.5.

Coastal Water Temperatures

Place Temperature

Stations

Nearby Weather Stations

Station Location Temp. Windchill Dew Point Humidity Wind Precip. Elev Updated Type
                   

Watches & Warnings

There are currently no watches in effect.